Time;durP1;ratioP1;P1;durP2;ratioP2;P2;SDS_P1;SDS_P2;PMS_P1;PMS_P2;Temp;Humidity;BMP_temperature;BMP_pressure;BME280_temperature;BME280_humidity;BME280_pressure;Samples;Min_cycle;Max_cycle;Signal;HPM_P1;HPM_P2
2021/08/10 00:01:56;;;;;;;;;;;;;;;13.77;97.78;101093.88;5114287;28;19924;-77
2021/08/10 00:04:22;;;;;;;;;;;;;;;13.75;98.06;101088.78;5113035;28;19938;-77
2021/08/10 00:06:49;;;;;;;;;;;;;;;13.72;97.91;101084.59;5113816;28;20377;-77
2021/08/10 00:09:17;;;;;;;;;;;;;;;13.70;97.70;101090.84;5113680;28;19924;-77
2021/08/10 00:11:44;;;;;;;;;;;;;;;13.60;97.39;101087.97;5113437;28;19930;-77
2021/08/10 00:14:11;;;;;;;;;;;;;;;13.81;97.50;101088.38;5113291;28;19928;-77
2021/08/10 00:16:37;;;;;;;;;;;;;;;14.04;97.61;101086.09;5114009;28;19930;-77
2021/08/10 00:19:04;;;;;;;;;;;;;;;13.91;97.54;101083.41;5113858;28;19923;-77
2021/08/10 00:21:31;;;;;;;;;;;;;;;13.80;97.91;101083.25;5115017;28;19947;-77
2021/08/10 00:23:58;;;;;;;;;;;;;;;13.88;97.89;101081.00;5113817;28;19931;-76
2021/08/10 00:26:26;;;;;;;;;;;;;;;13.85;97.61;101084.66;5114602;28;20386;-77
2021/08/10 00:28:53;;;;;;;;;;;;;;;13.89;97.89;101080.88;5114733;28;20394;-77
2021/08/10 00:31:19;;;;;;;;;;;;;;;13.77;97.49;101079.06;5114386;28;19935;-77
2021/08/10 00:33:46;;;;;;;;;;;;;;;13.67;97.95;101080.59;5114426;28;19930;-77
2021/08/10 00:36:13;;;;;;;;;;;;;;;13.82;98.09;101081.38;5113895;28;19924;-77
2021/08/10 00:38:40;;;;;;;;;;;;;;;13.82;98.10;101076.13;5113736;28;19923;-77
2021/08/10 00:41:06;;;;;;;;;;;;;;;13.88;98.39;101073.16;5113242;28;19923;-77
2021/08/10 00:43:37;;;;;;;;;;;;;;;13.93;98.15;101076.31;5113241;28;19924;-77
2021/08/10 00:46:04;;;;;;;;;;;;;;;13.91;98.07;101073.78;5112851;28;19930;-77
2021/08/10 00:48:31;;;;;;;;;;;;;;;13.77;98.28;101070.34;5113830;28;19924;-77
2021/08/10 00:50:57;;;;;;;;;;;;;;;13.64;97.98;101065.06;5113431;28;19924;-77
2021/08/10 00:53:24;;;;;;;;;;;;;;;13.67;98.13;101064.91;5114190;28;19924;-77
2021/08/10 00:55:51;;;;;;;;;;;;;;;13.70;98.20;101065.53;5114067;28;19924;-77
2021/08/10 00:58:18;;;;;;;;;;;;;;;13.78;98.21;101066.81;5113045;28;19923;-78
2021/08/10 01:00:46;;;;;;;;;;;;;;;13.84;97.89;101069.03;5113349;28;19931;-77
2021/08/10 01:03:13;;;;;;;;;;;;;;;13.70;98.03;101072.53;5112640;28;19931;-77
2021/08/10 01:05:44;;;;;;;;;;;;;;;13.70;97.76;101069.94;5112891;28;20405;-77
2021/08/10 01:08:15;;;;;;;;;;;;;;;13.67;97.77;101073.56;5113027;28;20374;-77
2021/08/10 01:10:44;;;;;;;;;;;;;;;13.91;97.62;101075.56;5113478;28;19928;-77
2021/08/10 01:13:15;;;;;;;;;;;;;;;13.86;97.42;101075.84;5112679;28;20542;-77
2021/08/10 01:15:45;;;;;;;;;;;;;;;13.80;97.51;101084.09;5115748;28;19928;-77
2021/08/10 01:18:14;;;;;;;;;;;;;;;13.79;97.82;101079.78;5116727;28;19928;-77
2021/08/10 01:21:00;;;;;;;;;;;;;;;13.97;97.57;101085.63;5116867;28;20404;-77
2021/08/10 01:23:28;;;;;;;;;;;;;;;14.18;97.27;101091.28;5117268;28;19931;-76
2021/08/10 01:25:58;;;;;;;;;;;;;;;14.19;97.36;101076.41;5117299;28;19930;-77
2021/08/10 01:28:33;;;;;;;;;;;;;;;13.98;97.64;101089.09;5117211;28;19974;-77
2021/08/10 01:31:24;;;;;;;;;;;;;;;13.94;97.71;101089.28;5116826;28;19923;-77
2021/08/10 01:33:52;;;;;;;;;;;;;;;13.95;97.95;101090.13;5117412;28;19924;-77
2021/08/10 01:36:21;;;;;;;;;;;;;;;13.87;98.22;101095.84;5117062;28;19934;-77
2021/08/10 01:38:50;;;;;;;;;;;;;;;13.91;98.12;101091.25;5116452;28;19931;-76
2021/08/10 01:41:18;;;;;;;;;;;;;;;13.96;97.59;101085.75;5116012;28;20369;-76
2021/08/10 01:43:45;;;;;;;;;;;;;;;14.01;98.68;101089.72;5117156;28;19939;-77
2021/08/10 01:46:13;;;;;;;;;;;;;;;13.98;98.61;101087.31;5116051;28;19930;-77
2021/08/10 01:48:41;;;;;;;;;;;;;;;13.91;98.38;101086.84;5116379;28;19924;-76
2021/08/10 01:51:08;;;;;;;;;;;;;;;13.94;98.35;101080.59;5116449;28;20298;-77
2021/08/10 01:53:36;;;;;;;;;;;;;;;14.05;97.84;101088.63;5116820;28;19924;-77
2021/08/10 01:56:03;;;;;;;;;;;;;;;14.34;98.15;101081.47;5116142;28;19935;-77
2021/08/10 01:58:31;;;;;;;;;;;;;;;14.17;98.00;101092.19;5116028;28;19924;-77
2021/08/10 02:00:58;;;;;;;;;;;;;;;14.20;97.83;101080.69;5115924;28;19924;-77
2021/08/10 02:03:26;;;;;;;;;;;;;;;14.04;98.29;101092.16;5115373;28;20427;-77
2021/08/10 02:05:54;;;;;;;;;;;;;;;14.02;98.47;101095.81;5115861;28;19924;-77
2021/08/10 02:08:22;;;;;;;;;;;;;;;14.27;98.48;101077.56;5115567;28;19923;-77
2021/08/10 02:10:50;;;;;;;;;;;;;;;14.28;97.81;101079.28;5116047;28;19939;-77
2021/08/10 02:13:16;;;;;;;;;;;;;;;14.28;97.72;101076.66;5115401;28;19931;-77
2021/08/10 02:15:45;;;;;;;;;;;;;;;14.18;97.93;101072.97;5115669;28;20294;-77
2021/08/10 02:18:12;;;;;;;;;;;;;;;14.25;98.23;101065.53;5115302;28;20386;-77
2021/08/10 02:20:40;;;;;;;;;;;;;;;14.22;98.01;101066.56;5115576;28;19923;-77
2021/08/10 02:23:10;;;;;;;;;;;;;;;14.12;97.98;101079.41;5115507;28;19924;-77
2021/08/10 02:25:37;;;;;;;;;;;;;;;14.09;97.72;101071.75;5114984;28;19924;-77
2021/08/10 02:28:06;;;;;;;;;;;;;;;14.06;98.39;101071.13;5114468;28;19928;-77
2021/08/10 02:30:36;;;;;;;;;;;;;;;14.08;98.03;101071.88;5115375;28;19931;-77
2021/08/10 02:33:05;;;;;;;;;;;;;;;14.03;98.36;101071.34;5115596;28;19938;-77
2021/08/10 02:35:32;;;;;;;;;;;;;;;14.11;98.40;101069.88;5115520;28;19930;-76
2021/08/10 02:38:01;;;;;;;;;;;;;;;14.35;98.02;101069.22;5115519;28;19924;-77
2021/08/10 02:40:30;;;;;;;;;;;;;;;14.24;98.06;101069.09;5115183;28;20408;-77
2021/08/10 02:42:58;;;;;;;;;;;;;;;14.14;98.19;101074.09;5115425;28;19923;-77
2021/08/10 02:45:25;;;;;;;;;;;;;;;14.21;98.18;101070.13;5115123;28;19923;-77
2021/08/10 02:47:52;;;;;;;;;;;;;;;14.26;98.04;101067.22;5115343;28;20336;-77
2021/08/10 02:50:19;;;;;;;;;;;;;;;14.37;97.19;101075.19;5114765;28;19927;-77
2021/08/10 02:52:46;;;;;;;;;;;;;;;14.31;97.74;101068.59;5115221;28;19924;-77
2021/08/10 02:55:13;;;;;;;;;;;;;;;14.50;97.32;101077.84;5114587;28;19924;-77
2021/08/10 02:57:45;;;;;;;;;;;;;;;14.55;97.10;101073.19;5115130;28;19923;-77
2021/08/10 03:00:14;;;;;;;;;;;;;;;14.46;97.17;101074.56;5114636;28;19924;-77
2021/08/10 03:02:42;;;;;;;;;;;;;;;14.61;96.88;101069.31;5114790;28;19924;-77
2021/08/10 03:05:12;;;;;;;;;;;;;;;14.69;96.30;101067.84;5114688;28;19924;-77
2021/08/10 03:07:41;;;;;;;;;;;;;;;14.75;95.61;101071.84;5114925;28;19924;-77
2021/08/10 03:10:08;;;;;;;;;;;;;;;14.66;96.15;101072.47;5114695;28;19945;-77
2021/08/10 03:12:37;;;;;;;;;;;;;;;14.71;95.69;101078.22;5115243;28;19928;-77
2021/08/10 03:15:06;;;;;;;;;;;;;;;14.76;95.49;101070.91;5115328;28;19923;-77
2021/08/10 03:17:34;;;;;;;;;;;;;;;14.78;95.07;101064.59;5114852;28;19923;-77
2021/08/10 03:20:02;;;;;;;;;;;;;;;14.59;95.71;101065.03;5115725;28;19931;-77
2021/08/10 03:22:29;;;;;;;;;;;;;;;14.52;96.57;101071.56;5115224;28;19934;-77
2021/08/10 03:24:57;;;;;;;;;;;;;;;14.52;96.37;101068.13;5114358;28;19924;-77
2021/08/10 03:27:25;;;;;;;;;;;;;;;14.44;97.48;101067.75;5115917;28;20018;-77
2021/08/10 03:29:53;;;;;;;;;;;;;;;14.46;97.36;101066.72;5117230;28;19930;-77
2021/08/10 03:32:22;;;;;;;;;;;;;;;14.49;97.39;101066.53;5115839;28;20275;-77
2021/08/10 03:34:49;;;;;;;;;;;;;;;14.62;96.40;101055.25;5116030;28;20416;-77
2021/08/10 03:37:17;;;;;;;;;;;;;;;14.58;97.12;101058.09;5115027;28;19924;-77
2021/08/10 03:39:44;;;;;;;;;;;;;;;14.55;97.56;101060.91;5115575;28;20021;-78
2021/08/10 03:42:11;;;;;;;;;;;;;;;14.90;95.07;101055.09;5116127;28;20043;-77
2021/08/10 03:44:42;;;;;;;;;;;;;;;15.08;94.50;101058.22;5115809;28;19923;-77
2021/08/10 03:47:09;;;;;;;;;;;;;;;15.02;94.01;101056.84;5115365;28;20378;-77
2021/08/10 03:49:37;;;;;;;;;;;;;;;15.13;93.76;101056.13;5115410;28;19924;-77
2021/08/10 03:52:04;;;;;;;;;;;;;;;15.11;94.16;101046.69;5115140;28;19931;-78
2021/08/10 03:54:31;;;;;;;;;;;;;;;15.15;93.94;101048.97;5116324;28;19924;-77
2021/08/10 03:56:58;;;;;;;;;;;;;;;15.21;93.77;101053.81;5115806;28;19930;-78
2021/08/10 03:59:25;;;;;;;;;;;;;;;15.27;92.77;101049.91;5115123;28;19928;-78
2021/08/10 04:01:53;;;;;;;;;;;;;;;15.28;93.03;101048.97;5115294;28;19931;-78
2021/08/10 04:04:21;;;;;;;;;;;;;;;15.41;92.54;101049.78;5115753;28;19928;-77
2021/08/10 04:06:49;;;;;;;;;;;;;;;15.43;91.53;101041.81;5115790;28;19923;-78
2021/08/10 04:09:16;;;;;;;;;;;;;;;15.42;92.25;101040.13;5114518;28;19928;-77
2021/08/10 04:11:43;;;;;;;;;;;;;;;15.28;93.36;101038.47;5113850;28;19928;-77
2021/08/10 04:14:10;;;;;;;;;;;;;;;15.56;92.02;101039.97;5113967;28;19923;-77
2021/08/10 04:16:45;;;;;;;;;;;;;;;15.63;91.19;101043.84;5114201;28;19924;-77
2021/08/10 04:19:13;;;;;;;;;;;;;;;15.41;93.39;101041.06;5113901;28;20401;-77
2021/08/10 04:21:40;;;;;;;;;;;;;;;15.36;92.93;101037.94;5114939;28;19927;-76
2021/08/10 04:24:08;;;;;;;;;;;;;;;15.55;92.06;101042.72;5114953;28;20374;-77
2021/08/10 04:26:36;;;;;;;;;;;;;;;15.63;91.89;101046.47;5114703;28;19927;-78
2021/08/10 04:29:03;;;;;;;;;;;;;;;15.27;93.82;101038.59;5114519;28;19931;-78
2021/08/10 04:31:29;;;;;;;;;;;;;;;15.16;93.47;101037.56;5115779;28;19923;-78
2021/08/10 04:33:56;;;;;;;;;;;;;;;15.15;93.88;101038.50;5114658;28;19931;-79
2021/08/10 04:36:22;;;;;;;;;;;;;;;15.05;95.15;101041.88;5112901;28;19931;-80
2021/08/10 04:38:49;;;;;;;;;;;;;;;14.91;96.68;101038.41;5112996;28;19931;-77
2021/08/10 04:41:17;;;;;;;;;;;;;;;15.08;96.19;101045.13;5113084;28;19931;-77
2021/08/10 04:43:44;;;;;;;;;;;;;;;15.01;95.96;101044.69;5113109;28;19930;-74
2021/08/10 04:46:10;;;;;;;;;;;;;;;14.95;96.53;101044.28;5112645;28;20370;-77
2021/08/10 04:48:37;;;;;;;;;;;;;;;15.33;94.27;101048.63;5113125;28;19924;-74
2021/08/10 04:51:03;;;;;;;;;;;;;;;15.42;93.33;101048.00;5112453;28;19924;-74
2021/08/10 04:53:30;;;;;;;;;;;;;;;15.38;93.62;101046.53;5113232;28;19923;-74
2021/08/10 04:55:56;;;;;;;;;;;;;;;15.50;92.79;101040.44;5113144;28;19924;-74
2021/08/10 04:58:24;;;;;;;;;;;;;;;15.46;93.37;101041.56;5112487;28;19924;-77
2021/08/10 05:00:51;;;;;;;;;;;;;;;15.37;92.98;101039.63;5112769;28;19924;-75
2021/08/10 05:03:18;;;;;;;;;;;;;;;15.27;94.19;101039.44;5112752;28;19931;-78
2021/08/10 05:05:44;;;;;;;;;;;;;;;15.62;92.19;101034.31;5112963;28;20297;-80
2021/08/10 05:08:11;;;;;;;;;;;;;;;15.70;92.09;101032.97;5112992;28;20305;-79
2021/08/10 05:10:38;;;;;;;;;;;;;;;15.73;92.74;101035.34;5113232;28;19930;-79
2021/08/10 05:13:04;;;;;;;;;;;;;;;15.89;90.87;101044.63;5112736;28;19924;-78
2021/08/10 05:15:32;;;;;;;;;;;;;;;16.01;90.31;101037.66;5112676;28;19924;-76
2021/08/10 05:17:59;;;;;;;;;;;;;;;15.87;91.58;101036.00;5112705;28;19923;-76
2021/08/10 05:20:25;;;;;;;;;;;;;;;15.94;92.21;101036.41;5112564;28;20389;-76
2021/08/10 05:22:52;;;;;;;;;;;;;;;16.14;91.88;101034.13;5112855;28;19930;-76
2021/08/10 05:25:19;;;;;;;;;;;;;;;16.19;91.45;101035.44;5112118;28;19931;-76
2021/08/10 05:27:45;;;;;;;;;;;;;;;16.08;91.17;101041.50;5112874;28;20341;-76
2021/08/10 05:30:13;;;;;;;;;;;;;;;15.99;92.10;101039.53;5112447;28;19924;-76
2021/08/10 05:32:41;;;;;;;;;;;;;;;16.32;89.51;101045.88;5112531;28;20377;-76
2021/08/10 05:35:07;;;;;;;;;;;;;;;16.46;89.18;101043.03;5112560;28;19931;-76
2021/08/10 05:37:34;;;;;;;;;;;;;;;16.40;88.11;101037.44;5112778;28;19930;-76
2021/08/10 05:40:01;;;;;;;;;;;;;;;16.43;88.56;101040.66;5112524;28;19931;-77
2021/08/10 05:42:28;;;;;;;;;;;;;;;16.39;89.28;101047.09;5112322;28;19931;-77
2021/08/10 05:44:54;;;;;;;;;;;;;;;16.42;88.76;101052.13;5112379;28;19930;-77
2021/08/10 05:47:21;;;;;;;;;;;;;;;16.35;88.73;101048.28;5110900;28;19924;-77
2021/08/10 05:49:49;;;;;;;;;;;;;;;16.33;89.61;101048.38;5111912;28;19924;-77
2021/08/10 05:52:16;;;;;;;;;;;;;;;16.22;89.67;101050.13;5111486;28;19927;-77
2021/08/10 05:54:43;;;;;;;;;;;;;;;16.28;89.41;101049.66;5111608;28;19927;-77
2021/08/10 05:57:09;;;;;;;;;;;;;;;16.26;90.48;101051.56;5111456;28;19924;-77
2021/08/10 05:59:36;;;;;;;;;;;;;;;16.46;88.90;101050.09;5111638;28;19928;-77
2021/08/10 06:02:04;;;;;;;;;;;;;;;16.57;88.64;101055.38;5113733;28;20014;-77
2021/08/10 06:04:30;;;;;;;;;;;;;;;16.50;89.01;101057.63;5116127;28;19931;-77
2021/08/10 06:07:01;;;;;;;;;;;;;;;16.51;89.94;101059.28;5115802;28;19923;-77
2021/08/10 06:09:27;;;;;;;;;;;;;;;16.75;87.79;101048.72;5116048;28;19923;-77
2021/08/10 06:11:54;;;;;;;;;;;;;;;16.81;86.70;101055.34;5115585;28;19924;-76
2021/08/10 06:14:20;;;;;;;;;;;;;;;16.70;87.29;101055.28;5115812;28;19974;-76
2021/08/10 06:16:47;;;;;;;;;;;;;;;16.68;89.06;101058.03;5115640;28;19930;-76
2021/08/10 06:19:14;;;;;;;;;;;;;;;16.64;88.62;101056.56;5115550;28;19947;-76
2021/08/10 06:21:40;;;;;;;;;;;;;;;16.50;90.00;101059.41;5115887;28;19938;-76
2021/08/10 06:24:08;;;;;;;;;;;;;;;16.44;89.52;101060.72;5115103;28;20453;-76
2021/08/10 06:26:35;;;;;;;;;;;;;;;16.52;89.18;101070.66;5115680;28;19930;-77
2021/08/10 06:29:01;;;;;;;;;;;;;;;16.44;90.36;101063.34;5115153;28;19931;-77
2021/08/10 06:31:28;;;;;;;;;;;;;;;16.41;90.31;101066.19;5115180;28;19924;-77
2021/08/10 06:33:54;;;;;;;;;;;;;;;16.50;89.65;101062.03;5115689;28;19924;-77
2021/08/10 06:36:21;;;;;;;;;;;;;;;16.53;89.52;101064.44;5115359;28;19931;-77
2021/08/10 06:38:48;;;;;;;;;;;;;;;16.61;89.69;101067.31;5115242;28;19930;-77
2021/08/10 06:41:16;;;;;;;;;;;;;;;16.75;89.03;101066.28;5114868;28;20390;-77
2021/08/10 06:43:42;;;;;;;;;;;;;;;16.69;89.35;101054.44;5115121;28;20389;-77
2021/08/10 06:46:10;;;;;;;;;;;;;;;16.68;88.99;101059.81;5114938;28;19924;-77
2021/08/10 06:48:36;;;;;;;;;;;;;;;16.81;88.89;101057.13;5115322;28;20298;-77
2021/08/10 06:51:04;;;;;;;;;;;;;;;16.84;87.66;101057.72;5114640;28;19938;-77
2021/08/10 06:53:31;;;;;;;;;;;;;;;16.89;87.63;101060.84;5115209;28;19989;-77
2021/08/10 06:55:57;;;;;;;;;;;;;;;16.83;88.39;101056.06;5115117;28;19930;-76
2021/08/10 06:58:25;;;;;;;;;;;;;;;16.80;87.43;101060.69;5114660;28;19930;-76
2021/08/10 07:00:52;;;;;;;;;;;;;;;16.67;87.97;101064.25;5114702;28;19938;-76
2021/08/10 07:03:18;;;;;;;;;;;;;;;16.63;89.21;101072.47;5114823;28;19930;-76
2021/08/10 07:05:45;;;;;;;;;;;;;;;16.68;88.54;101065.06;5114883;28;19923;-77
2021/08/10 07:08:12;;;;;;;;;;;;;;;16.81;87.88;101065.00;5114789;28;20369;-77
2021/08/10 07:10:38;;;;;;;;;;;;;;;16.75;88.42;101058.41;5114877;28;19924;-77
2021/08/10 07:13:05;;;;;;;;;;;;;;;16.63;88.50;101068.03;5113957;28;19930;-77
2021/08/10 07:15:33;;;;;;;;;;;;;;;16.60;89.21;101065.66;5114753;28;19923;-77
2021/08/10 07:18:00;;;;;;;;;;;;;;;16.58;89.13;101070.19;5114298;28;20286;-77
2021/08/10 07:20:27;;;;;;;;;;;;;;;16.60;89.84;101062.19;5114748;28;19927;-77
2021/08/10 07:22:53;;;;;;;;;;;;;;;16.74;89.28;101056.72;5114378;28;19924;-77
2021/08/10 07:25:21;;;;;;;;;;;;;;;16.93;89.59;101064.09;5113893;28;20395;-77
2021/08/10 07:27:48;;;;;;;;;;;;;;;17.28;87.31;101071.84;5114505;28;19924;-76
2021/08/10 07:30:15;;;;;;;;;;;;;;;17.34;86.06;101073.16;5114021;28;20397;-76
2021/08/10 07:32:43;;;;;;;;;;;;;;;17.29;86.24;101075.31;5114047;28;20382;-76
2021/08/10 07:35:10;;;;;;;;;;;;;;;17.33;86.41;101074.13;5114196;28;19966;-76
2021/08/10 07:37:39;;;;;;;;;;;;;;;17.03;85.94;101069.44;5113954;28;20397;-77
2021/08/10 07:40:06;;;;;;;;;;;;;;;16.88;87.40;101067.06;5113791;28;20005;-76
2021/08/10 07:42:32;;;;;;;;;;;;;;;16.94;87.22;101066.56;5113944;28;19931;-77
2021/08/10 07:44:59;;;;;;;;;;;;;;;16.91;87.74;101066.81;5113979;28;19946;-77
2021/08/10 07:47:26;;;;;;;;;;;;;;;17.06;87.65;101064.81;5113908;28;19924;-77
2021/08/10 07:49:54;;;;;;;;;;;;;;;17.00;87.71;101062.63;5114028;28;19924;-77
2021/08/10 07:52:20;;;;;;;;;;;;;;;17.05;87.97;101065.75;5113428;28;19938;-77
2021/08/10 07:54:47;;;;;;;;;;;;;;;16.99;86.23;101060.97;5113627;28;20289;-77
2021/08/10 07:57:13;;;;;;;;;;;;;;;16.96;86.45;101064.66;5113705;28;19931;-77
2021/08/10 07:59:40;;;;;;;;;;;;;;;16.95;86.89;101055.13;5113544;28;19930;-77
2021/08/10 08:02:07;;;;;;;;;;;;;;;16.88;86.90;101056.53;5113374;28;20184;-78
2021/08/10 08:04:35;;;;;;;;;;;;;;;16.72;87.56;101059.47;5113573;28;20293;-77
2021/08/10 08:07:03;;;;;;;;;;;;;;;16.59;89.13;101061.34;5113117;28;19971;-77
2021/08/10 08:09:30;;;;;;;;;;;;;;;16.52;88.39;101055.72;5113772;28;19924;-77
2021/08/10 08:11:56;;;;;;;;;;;;;;;16.64;88.86;101056.56;5113509;28;19924;-77
2021/08/10 08:14:23;;;;;;;;;;;;;;;16.88;88.31;101053.91;5113155;28;20374;-77
2021/08/10 08:16:50;;;;;;;;;;;;;;;16.89;88.83;101063.47;5113296;28;19970;-77
2021/08/10 08:19:16;;;;;;;;;;;;;;;16.66;88.87;101062.56;5113030;28;19924;-77
2021/08/10 08:21:43;;;;;;;;;;;;;;;16.65;88.38;101065.31;5113373;28;19930;-77
2021/08/10 08:24:11;;;;;;;;;;;;;;;16.70;88.96;101066.63;5112082;28;20285;-77
2021/08/10 08:26:38;;;;;;;;;;;;;;;16.64;89.50;101061.00;5113406;28;19935;-77
2021/08/10 08:29:04;;;;;;;;;;;;;;;16.72;88.88;101064.72;5113167;28;19923;-77
2021/08/10 08:31:31;;;;;;;;;;;;;;;16.38;89.90;101066.41;5113385;28;20303;-76
2021/08/10 08:33:58;;;;;;;;;;;;;;;16.27;90.54;101072.47;5113191;28;19934;-77
2021/08/10 08:36:24;;;;;;;;;;;;;;;16.26;90.46;101068.19;5112824;28;20279;-77
2021/08/10 08:38:51;;;;;;;;;;;;;;;16.27;90.45;101072.47;5113397;28;19930;-77
2021/08/10 08:41:19;;;;;;;;;;;;;;;16.55;89.59;101070.41;5112792;28;20374;-78
2021/08/10 08:43:46;;;;;;;;;;;;;;;16.59;88.54;101058.72;5113296;28;19930;-77
2021/08/10 08:46:13;;;;;;;;;;;;;;;16.60;88.85;101067.44;5112521;28;20385;-77
2021/08/10 08:48:42;;;;;;;;;;;;;;;16.72;88.25;101067.38;5113218;28;20304;-77
2021/08/10 08:51:10;;;;;;;;;;;;;;;16.77;88.39;101067.00;5113258;28;19948;-77
2021/08/10 08:53:42;;;;;;;;;;;;;;;18.21;83.25;101068.81;5113070;28;19958;-77
2021/08/10 08:56:08;;;;;;;;;;;;;;;18.18;83.08;101060.31;5112585;28;20332;-77
2021/08/10 08:58:36;;;;;;;;;;;;;;;17.81;86.18;101063.31;5112826;28;20404;-77
2021/08/10 09:01:03;;;;;;;;;;;;;;;18.02;83.93;101064.19;5112653;28;19923;-77
2021/08/10 09:03:29;;;;;;;;;;;;;;;17.60;84.17;101071.13;5112906;28;19931;-77
2021/08/10 09:05:56;;;;;;;;;;;;;;;17.01;86.07;101063.50;5112582;28;19923;-77
2021/08/10 09:08:26;;;;;;;;;;;;;;;17.44;85.30;101065.38;5112521;28;19931;-77
2021/08/10 09:10:54;;;;;;;;;;;;;;;17.66;84.22;101070.63;5112716;28;19976;-77
2021/08/10 09:13:20;;;;;;;;;;;;;;;17.29;85.35;101070.91;5112857;28;19927;-78
2021/08/10 09:15:49;;;;;;;;;;;;;;;17.33;85.54;101058.34;5112680;28;19924;-78
2021/08/10 09:18:16;;;;;;;;;;;;;;;17.37;86.24;101067.69;5112633;28;19931;-78
2021/08/10 09:20:58;;;;;;;;;;;;;;;17.75;83.67;101074.28;5112826;28;19924;-78
2021/08/10 09:23:35;;;;;;;;;;;;;;;17.89;83.77;101073.22;5112442;28;20326;-78
2021/08/10 09:26:02;;;;;;;;;;;;;;;17.89;81.35;101067.97;5112708;28;19924;-78
2021/08/10 09:28:32;;;;;;;;;;;;;;;20.56;74.26;101063.41;5112871;28;20105;-78
2021/08/10 09:31:20;;;;;;;;;;;;;;;22.62;67.26;101065.59;5112740;28;19947;-78
2021/08/10 09:33:47;;;;;;;;;;;;;;;21.70;65.43;101072.84;5112363;28;19924;-78
2021/08/10 09:36:19;;;;;;;;;;;;;;;23.43;60.42;101062.56;5114063;28;19924;-78
2021/08/10 09:38:47;;;;;;;;;;;;;;;24.61;56.87;101065.06;5116486;28;20328;-78
2021/08/10 09:41:14;;;;;;;;;;;;;;;22.39;61.89;101060.78;5116371;28;19928;-77
2021/08/10 09:43:41;;;;;;;;;;;;;;;21.68;63.12;101066.91;5116423;28;20022;-78
2021/08/10 09:46:11;;;;;;;;;;;;;;;22.55;64.40;101067.19;5115879;28;19930;-78
2021/08/10 09:48:38;;;;;;;;;;;;;;;24.84;55.79;101054.53;5116425;28;20266;-78
2021/08/10 09:51:08;;;;;;;;;;;;;;;24.93;53.23;101053.50;5115922;28;19924;-78
2021/08/10 09:53:35;;;;;;;;;;;;;;;24.61;55.06;101053.56;5116112;28;20374;-77
2021/08/10 09:56:02;;;;;;;;;;;;;;;23.44;58.94;101052.75;5115831;28;20370;-77
2021/08/10 09:58:28;;;;;;;;;;;;;;;25.48;53.03;101056.28;5115961;28;19923;-77
2021/08/10 10:00:59;;;;;;;;;;;;;;;25.37;53.60;101050.34;5115917;28;19924;-77
2021/08/10 10:03:28;;;;;;;;;;;;;;;24.34;53.39;101042.28;5116279;28;19927;-77
2021/08/10 10:05:55;;;;;;;;;;;;;;;24.59;53.21;101051.09;5116143;28;20004;-77
2021/08/10 10:08:22;;;;;;;;;;;;;;;26.43;50.03;101039.94;5115614;28;19924;-77
2021/08/10 10:10:49;;;;;;;;;;;;;;;26.32;50.75;101045.72;5116191;28;19923;-77
2021/08/10 10:13:17;;;;;;;;;;;;;;;27.32;45.32;101042.69;5115591;28;19924;-77
2021/08/10 10:15:44;;;;;;;;;;;;;;;28.87;43.21;101034.78;5115703;28;20377;-77
2021/08/10 10:18:11;;;;;;;;;;;;;;;29.25;42.33;101026.34;5115394;28;19934;-77
2021/08/10 10:20:41;;;;;;;;;;;;;;;29.62;40.42;101036.75;5115848;28;19924;-77
2021/08/10 10:23:09;;;;;;;;;;;;;;;28.64;40.40;101032.41;5115689;28;19924;-77
2021/08/10 10:25:36;;;;;;;;;;;;;;;26.54;44.92;101031.56;5115272;28;19931;-77
2021/08/10 10:28:03;;;;;;;;;;;;;;;25.52;46.94;101036.31;5115277;28;19924;-77
2021/08/10 10:30:30;;;;;;;;;;;;;;;26.09;45.83;101037.75;5115385;28;20412;-77
2021/08/10 10:32:58;;;;;;;;;;;;;;;26.45;45.96;101035.28;5115658;28;20010;-77
2021/08/10 10:35:25;;;;;;;;;;;;;;;26.29;46.58;101037.06;5115602;28;19973;-77
2021/08/10 10:37:54;;;;;;;;;;;;;;;26.05;47.64;101039.97;5115086;28;19930;-77
2021/08/10 10:40:21;;;;;;;;;;;;;;;26.79;45.81;101029.44;5115287;28;19931;-77
2021/08/10 10:42:49;;;;;;;;;;;;;;;26.22;46.50;101033.47;5115126;28;19931;-77
2021/08/10 10:45:32;;;;;;;;;;;;;;;25.90;49.82;101039.09;5114719;28;19976;-77
2021/08/10 10:47:58;;;;;;;;;;;;;;;25.06;51.88;101034.31;5114473;28;19924;-76
2021/08/10 10:50:25;;;;;;;;;;;;;;;24.47;54.05;101026.66;5114882;28;19930;-77
2021/08/10 10:53:01;;;;;;;;;;;;;;;22.99;56.37;101027.34;5115024;28;19931;-76
2021/08/10 10:55:34;;;;;;;;;;;;;;;22.18;58.35;101029.28;5115238;28;19924;-76
2021/08/10 10:58:01;;;;;;;;;;;;;;;21.33;59.58;101032.38;5114594;28;20027;-76
2021/08/10 11:00:30;;;;;;;;;;;;;;;21.40;61.69;101036.13;5114660;28;19931;-77
2021/08/10 11:03:12;;;;;;;;;;;;;;;21.18;62.84;101037.31;5114634;28;20297;-77
2021/08/10 11:05:38;;;;;;;;;;;;;;;21.25;63.46;101028.66;5114688;28;19923;-77
2021/08/10 11:08:07;;;;;;;;;;;;;;;21.88;63.25;101030.50;5114581;28;19924;-77
2021/08/10 11:10:36;;;;;;;;;;;;;;;22.49;60.19;101028.06;5114799;28;19928;-77
2021/08/10 11:13:04;;;;;;;;;;;;;;;22.48;57.68;101034.31;5114573;28;19930;-77
2021/08/10 11:15:45;;;;;;;;;;;;;;;22.56;57.22;101029.94;5114720;28;19928;-77
2021/08/10 11:18:23;;;;;;;;;;;;;;;23.14;54.89;101016.97;5113352;28;20278;-77
2021/08/10 11:20:50;;;;;;;;;;;;;;;22.20;59.60;101023.03;5114378;28;20381;-77
2021/08/10 11:23:34;;;;;;;;;;;;;;;21.90;59.11;101022.41;5113898;28;19930;-77
2021/08/10 11:26:19;;;;;;;;;;;;;;;21.59;60.92;101030.72;5114311;28;20301;-77
2021/08/10 11:28:47;;;;;;;;;;;;;;;21.04;63.10;101034.19;5114554;28;19924;-77
2021/08/10 11:31:31;;;;;;;;;;;;;;;20.32;65.40;101030.31;5113974;28;19959;-77
2021/08/10 11:33:57;;;;;;;;;;;;;;;19.70;67.88;101039.47;5114103;28;19938;-77
2021/08/10 11:36:24;;;;;;;;;;;;;;;19.54;70.19;101046.06;5114340;28;19946;-77
2021/08/10 11:39:08;;;;;;;;;;;;;;;19.61;69.40;101040.28;5114310;28;19934;-77
2021/08/10 11:41:35;;;;;;;;;;;;;;;19.48;71.28;101048.44;5114346;28;19940;-77
2021/08/10 11:44:03;;;;;;;;;;;;;;;19.44;71.94;101039.94;5113716;28;20267;-77
2021/08/10 11:46:31;;;;;;;;;;;;;;;19.42;70.53;101043.69;5113831;28;20039;-77
2021/08/10 11:48:58;;;;;;;;;;;;;;;19.30;71.25;101042.97;5113603;28;19931;-77
2021/08/10 11:51:25;;;;;;;;;;;;;;;19.01;71.63;101058.66;5114135;28;19953;-77
2021/08/10 11:53:53;;;;;;;;;;;;;;;18.64;74.09;101061.75;5114050;28;19923;-77
2021/08/10 11:56:28;;;;;;;;;;;;;;;18.76;74.38;101054.66;5113453;28;19928;-77
2021/08/10 11:58:55;;;;;;;;;;;;;;;18.69;75.95;101060.41;5113901;28;19923;-78
2021/08/10 12:01:22;;;;;;;;;;;;;;;18.27;76.09;101052.50;5113240;28;20303;-77
2021/08/10 12:03:50;;;;;;;;;;;;;;;18.08;77.09;101059.41;5113611;28;19924;-77
2021/08/10 12:06:16;;;;;;;;;;;;;;;18.06;77.14;101055.09;5113565;28;19924;-77
2021/08/10 12:08:43;;;;;;;;;;;;;;;17.99;77.17;101046.03;5113621;28;19931;-77
2021/08/10 12:11:11;;;;;;;;;;;;;;;17.81;78.27;101045.72;5113225;28;19924;-77
2021/08/10 12:13:39;;;;;;;;;;;;;;;17.92;79.16;101054.56;5113735;28;19923;-77
2021/08/10 12:16:09;;;;;;;;;;;;;;;17.64;79.61;101059.38;5113098;28;19930;-77
2021/08/10 12:18:47;;;;;;;;;;;;;;;17.48;82.05;101064.19;5113465;28;19924;-77
2021/08/10 12:21:14;;;;;;;;;;;;;;;17.28;81.78;101071.00;5113107;28;19977;-78
2021/08/10 12:23:41;;;;;;;;;;;;;;;17.23;83.67;101057.38;5113332;28;19931;-77
2021/08/10 12:26:09;;;;;;;;;;;;;;;17.43;83.16;101059.28;5112971;28;19924;-77
2021/08/10 12:29:01;;;;;;;;;;;;;;;17.53;83.32;101065.50;5113048;28;20209;-77
2021/08/10 12:31:30;;;;;;;;;;;;;;;18.09;81.30;101067.19;5092480;28;19924;-77
2021/08/10 12:33:57;;;;;;;;;;;;;;;19.03;79.54;101064.63;5113409;28;20019;-78
2021/08/10 12:36:24;;;;;;;;;;;;;;;20.04;77.18;101066.34;5112879;28;19924;-77
2021/08/10 12:38:51;;;;;;;;;;;;;;;22.97;64.20;101056.72;5113835;28;19924;-77
2021/08/10 12:41:18;;;;;;;;;;;;;;;24.09;59.06;101058.22;5112778;28;20381;-78